createdAt,value
2023-02-11T00:00:37.847Z,6.8
2023-02-11T00:01:46.042Z,6.9
2023-02-11T00:02:54.219Z,6.9
2023-02-11T00:04:03.397Z,6.9
2023-02-11T00:05:11.586Z,7
2023-02-11T00:06:19.789Z,6.9
2023-02-11T00:07:28.951Z,6.9
2023-02-11T00:08:38.129Z,7
2023-02-11T00:09:47.320Z,7
2023-02-11T00:10:56.468Z,7
2023-02-11T00:12:05.691Z,7
2023-02-11T00:13:14.800Z,7
2023-02-11T00:14:23.991Z,7.1
2023-02-11T00:15:33.153Z,7.1
2023-02-11T00:16:42.334Z,7.1
2023-02-11T00:17:51.500Z,7
2023-02-11T00:19:00.687Z,7.1
2023-02-11T00:20:09.855Z,7
2023-02-11T00:21:18.035Z,7
2023-02-11T00:22:27.211Z,6.9
2023-02-11T00:23:36.393Z,6.9
2023-02-11T00:24:45.550Z,6.8
2023-02-11T00:25:54.719Z,6.8
2023-02-11T00:27:03.947Z,6.8
2023-02-11T00:28:13.066Z,6.8
2023-02-11T00:29:22.243Z,6.8
2023-02-11T00:30:30.484Z,6.7
2023-02-11T00:31:38.628Z,6.7
2023-02-11T00:32:47.809Z,6.7
2023-02-11T00:33:56.977Z,6.7
2023-02-11T00:35:06.142Z,6.7
2023-02-11T00:36:14.375Z,6.7
2023-02-11T00:37:22.531Z,6.7
2023-02-11T00:39:40.869Z,6.7
2023-02-11T00:41:59.213Z,6.7
2023-02-11T00:43:08.378Z,6.7
2023-02-11T00:44:17.547Z,6.7
2023-02-11T00:45:26.721Z,6.7
2023-02-11T00:46:35.902Z,6.7
2023-02-11T00:47:45.105Z,6.8
2023-02-11T00:48:54.277Z,6.9
2023-02-11T00:50:03.413Z,6.8
2023-02-11T00:51:11.662Z,6.8
2023-02-11T00:52:19.797Z,6.8
2023-02-11T00:53:28.962Z,6.9
2023-02-11T00:54:38.141Z,6.8
2023-02-11T00:55:47.315Z,6.9
2023-02-11T00:56:56.505Z,6.9
2023-02-11T00:58:05.665Z,6.9
2023-02-11T00:59:14.830Z,6.9
2023-02-11T01:00:24.014Z,6.9
2023-02-11T01:01:33.179Z,6.9
2023-02-11T01:02:42.357Z,6.9
2023-02-11T01:03:50.550Z,6.9
2023-02-11T01:04:58.744Z,6.9
2023-02-11T01:06:07.912Z,6.9
2023-02-11T01:07:17.083Z,6.9
2023-02-11T01:08:26.245Z,6.9
2023-02-11T01:09:35.439Z,6.9
2023-02-11T01:10:44.610Z,6.9
2023-02-11T01:11:53.778Z,6.9
2023-02-11T01:13:03.021Z,6.9
2023-02-11T01:14:12.135Z,7
2023-02-11T01:15:21.296Z,6.9
2023-02-11T01:16:30.465Z,6.9
2023-02-11T01:17:39.634Z,6.9
2023-02-11T01:18:48.817Z,6.9
2023-02-11T01:19:57.986Z,6.8
2023-02-11T01:21:06.167Z,6.9
2023-02-11T01:22:15.341Z,6.9
2023-02-11T01:23:24.576Z,6.9
2023-02-11T01:24:33.697Z,6.9
2023-02-11T01:25:42.916Z,6.9
2023-02-11T01:26:52.026Z,6.9
2023-02-11T01:28:00.239Z,6.9
2023-02-11T01:29:08.416Z,6.9
2023-02-11T01:30:17.583Z,6.8
2023-02-11T01:31:26.786Z,7
2023-02-11T01:32:34.973Z,7
2023-02-11T01:33:43.131Z,6.9
2023-02-11T01:34:52.317Z,6.9
2023-02-11T01:36:01.483Z,6.9
2023-02-11T01:37:10.662Z,6.9
2023-02-11T01:38:19.838Z,6.9
2023-02-11T01:40:38.176Z,6.8
2023-02-11T01:41:47.351Z,6.8
2023-02-11T01:42:56.537Z,6.9
2023-02-11T01:44:05.692Z,6.9
2023-02-11T01:45:14.879Z,6.9
2023-02-11T01:46:24.034Z,6.9
2023-02-11T01:47:33.213Z,6.9
2023-02-11T01:48:42.547Z,6.9
2023-02-11T01:49:50.575Z,6.9
2023-02-11T01:50:59.757Z,6.9
2023-02-11T01:52:07.975Z,6.9
2023-02-11T01:53:17.115Z,7
2023-02-11T01:54:26.340Z,6.9
2023-02-11T01:55:35.488Z,6.9
2023-02-11T01:56:44.626Z,6.9
2023-02-11T01:57:53.797Z,6.9
2023-02-11T01:59:02.265Z,7
2023-02-11T02:00:11.183Z,6.9
2023-02-11T02:01:19.368Z,7
2023-02-11T02:02:28.660Z,6.9
2023-02-11T02:03:37.831Z,6.9
2023-02-11T02:04:47.006Z,6.9
2023-02-11T02:05:56.177Z,7
2023-02-11T02:07:05.381Z,7
2023-02-11T02:08:14.537Z,6.9
2023-02-11T02:09:23.702Z,7
2023-02-11T02:10:32.875Z,7
2023-02-11T02:11:42.038Z,6.9
2023-02-11T02:12:51.203Z,6.9
2023-02-11T02:14:00.380Z,7
2023-02-11T02:15:09.556Z,6.9
2023-02-11T02:16:18.741Z,6.9
2023-02-11T02:17:26.912Z,6.9
2023-02-11T02:18:36.080Z,6.9
2023-02-11T02:19:45.255Z,6.9
2023-02-11T02:20:54.487Z,6.9
2023-02-11T02:22:03.602Z,6.9
2023-02-11T02:23:12.769Z,6.9
2023-02-11T02:24:21.942Z,6.9
2023-02-11T02:25:30.153Z,6.9
2023-02-11T02:26:38.360Z,6.9
2023-02-11T02:27:47.494Z,6.9
2023-02-11T02:28:56.678Z,6.9
2023-02-11T02:30:04.865Z,6.9
2023-02-11T02:31:13.049Z,6.9
2023-02-11T02:32:22.224Z,6.9
2023-02-11T02:33:31.465Z,6.9
2023-02-11T02:34:40.569Z,6.8
2023-02-11T02:35:49.742Z,6.8
2023-02-11T02:36:58.917Z,6.9
2023-02-11T02:38:08.093Z,6.9
2023-02-11T02:39:17.259Z,6.9
2023-02-11T02:40:26.474Z,7
2023-02-11T02:41:35.676Z,6.9
2023-02-11T02:42:44.816Z,6.9
2023-02-11T02:43:53.972Z,6.9
2023-02-11T02:45:03.122Z,6.9
2023-02-11T02:46:11.318Z,6.9
2023-02-11T02:47:20.486Z,6.9
2023-02-11T02:48:29.668Z,6.9
2023-02-11T02:49:38.851Z,6.9
2023-02-11T02:50:48.000Z,6.9
2023-02-11T02:51:57.177Z,6.9
2023-02-11T02:53:06.367Z,6.9
2023-02-11T02:54:14.593Z,7
2023-02-11T02:55:22.750Z,6.9
2023-02-11T02:56:30.922Z,6.9
2023-02-11T02:57:39.113Z,6.9
2023-02-11T02:58:48.301Z,6.9
2023-02-11T02:59:57.464Z,6.9
2023-02-11T03:01:06.629Z,6.9
2023-02-11T03:02:15.809Z,6.9
2023-02-11T03:03:24.975Z,6.9
2023-02-11T03:04:34.162Z,7
2023-02-11T03:05:43.320Z,7
2023-02-11T03:06:52.527Z,7
2023-02-11T03:08:01.676Z,7
2023-02-11T03:09:10.842Z,6.9
2023-02-11T03:10:20.029Z,7
2023-02-11T03:11:29.192Z,7
2023-02-11T03:12:37.374Z,6.9
2023-02-11T03:13:46.540Z,7
2023-02-11T03:14:55.714Z,7
2023-02-11T03:16:04.884Z,7
2023-02-11T03:17:14.106Z,6.9
2023-02-11T03:18:23.237Z,7
2023-02-11T03:19:32.407Z,7
2023-02-11T03:20:40.636Z,7
2023-02-11T03:21:48.784Z,7
2023-02-11T03:22:57.969Z,7
2023-02-11T03:24:07.145Z,7
2023-02-11T03:25:16.319Z,7
2023-02-11T03:26:25.489Z,7
2023-02-11T03:27:33.681Z,7
2023-02-11T03:28:41.870Z,6.9
2023-02-11T03:29:51.043Z,6.9
2023-02-11T03:31:00.208Z,6.9
2023-02-11T03:32:09.396Z,6.9
2023-02-11T03:33:18.572Z,6.9
2023-02-11T03:34:27.723Z,7
2023-02-11T03:35:36.897Z,6.9
2023-02-11T03:36:46.085Z,6.9
2023-02-11T03:37:55.314Z,6.9
2023-02-11T03:39:04.422Z,7
2023-02-11T03:40:13.597Z,7
2023-02-11T03:41:22.757Z,7
2023-02-11T03:42:31.933Z,7
2023-02-11T03:43:40.122Z,6.9
2023-02-11T03:44:49.299Z,7
2023-02-11T03:45:58.462Z,7
2023-02-11T03:47:07.646Z,6.9
2023-02-11T03:49:25.980Z,6.8
2023-02-11T03:50:35.158Z,6.9
2023-02-11T03:51:44.333Z,7
2023-02-11T03:52:52.529Z,6.9
2023-02-11T03:54:00.725Z,7
2023-02-11T03:55:08.903Z,6.9
2023-02-11T03:56:17.100Z,6.9
2023-02-11T03:57:26.271Z,6.9
2023-02-11T03:58:35.446Z,6.9
2023-02-11T03:59:44.626Z,6.9
2023-02-11T04:00:53.788Z,6.9
2023-02-11T04:02:02.971Z,6.9
2023-02-11T04:03:12.123Z,6.9
2023-02-11T04:04:21.303Z,6.9
2023-02-11T04:05:30.485Z,6.9
2023-02-11T04:06:39.641Z,6.9
2023-02-11T04:07:48.813Z,6.9
2023-02-11T04:08:57.997Z,6.9
2023-02-11T04:10:07.166Z,6.9
2023-02-11T04:11:15.356Z,6.8
2023-02-11T04:12:24.533Z,6.8
2023-02-11T04:13:33.705Z,6.8
2023-02-11T04:14:42.877Z,6.7
2023-02-11T04:15:52.048Z,6.8
2023-02-11T04:17:01.216Z,6.8
2023-02-11T04:18:10.389Z,6.8
2023-02-11T04:19:18.593Z,6.9
2023-02-11T04:20:26.781Z,6.8
2023-02-11T04:21:35.948Z,6.8
2023-02-11T04:23:54.284Z,6.7
2023-02-11T04:25:03.466Z,6.8
2023-02-11T04:26:11.657Z,6.7
2023-02-11T04:27:19.843Z,6.9
2023-02-11T04:28:29.019Z,6.7
2023-02-11T04:29:38.185Z,6.8
2023-02-11T04:30:47.367Z,6.8
2023-02-11T04:31:56.526Z,6.8
2023-02-11T04:33:05.721Z,6.8
2023-02-11T04:34:14.882Z,6.8
2023-02-11T04:35:24.060Z,6.8
2023-02-11T04:36:33.218Z,6.7
2023-02-11T04:37:42.390Z,6.7
2023-02-11T04:40:00.739Z,6.7
2023-02-11T04:41:09.921Z,6.7
2023-02-11T04:42:18.107Z,6.7
2023-02-11T04:43:27.286Z,6.7
2023-02-11T04:44:36.455Z,6.7
2023-02-11T04:45:45.609Z,6.7
2023-02-11T04:46:54.797Z,6.7
2023-02-11T04:48:03.967Z,6.8
2023-02-11T04:49:13.144Z,6.8
2023-02-11T04:50:22.320Z,6.8
2023-02-11T04:51:30.526Z,6.9
2023-02-11T04:52:38.706Z,6.8
2023-02-11T04:53:47.865Z,6.7
2023-02-11T04:54:57.056Z,6.8
2023-02-11T04:56:05.229Z,6.7
2023-02-11T04:57:13.423Z,6.7
2023-02-11T04:58:22.587Z,6.7
2023-02-11T04:59:31.764Z,6.7
2023-02-11T05:00:40.943Z,6.7
2023-02-11T05:01:50.111Z,6.7
2023-02-11T05:04:08.463Z,6.7
2023-02-11T05:05:17.639Z,6.7
2023-02-11T05:06:26.804Z,6.7
2023-02-11T05:07:35.978Z,6.7
2023-02-11T05:08:45.154Z,6.6
2023-02-11T05:09:54.313Z,6.7
2023-02-11T05:11:03.491Z,6.6
2023-02-11T05:12:11.679Z,6.6
2023-02-11T05:13:20.840Z,6.6
2023-02-11T05:14:30.018Z,6.6
2023-02-11T05:15:39.187Z,6.6
2023-02-11T05:16:48.377Z,6.6
2023-02-11T05:17:57.562Z,6.6
2023-02-11T05:19:06.711Z,6.6
2023-02-11T05:20:15.912Z,6.6
2023-02-11T05:21:24.077Z,6.6
2023-02-11T05:22:32.271Z,6.6
2023-02-11T05:23:41.443Z,6.6
2023-02-11T05:24:50.624Z,6.6
2023-02-11T05:25:59.788Z,6.6
2023-02-11T05:27:07.988Z,6.6
2023-02-11T05:28:16.174Z,6.6
2023-02-11T05:29:25.354Z,6.7
2023-02-11T05:30:34.521Z,6.6
2023-02-11T05:31:43.686Z,6.7
2023-02-11T05:32:52.885Z,6.6
2023-02-11T05:34:02.038Z,6.6
2023-02-11T05:35:11.225Z,6.6
2023-02-11T05:36:20.387Z,6.7
2023-02-11T05:37:29.552Z,6.6
2023-02-11T05:38:38.733Z,6.7
2023-02-11T05:39:47.907Z,6.7
2023-02-11T05:40:57.067Z,6.6
2023-02-11T05:42:06.281Z,6.6
2023-02-11T05:43:14.456Z,6.6
2023-02-11T05:44:23.619Z,6.6
2023-02-11T05:45:32.791Z,6.6
2023-02-11T05:46:41.970Z,6.6
2023-02-11T05:47:51.122Z,6.6
2023-02-11T05:49:00.342Z,6.6
2023-02-11T05:50:09.473Z,6.6
2023-02-11T05:51:18.648Z,6.6
2023-02-11T05:52:26.834Z,6.6
2023-02-11T05:53:35.022Z,6.6
2023-02-11T05:54:44.192Z,6.6
2023-02-11T05:55:53.366Z,6.5
2023-02-11T05:57:01.562Z,6.6
2023-02-11T05:58:09.752Z,6.6
2023-02-11T05:59:18.991Z,6.6
2023-02-11T06:00:28.099Z,6.7
2023-02-11T06:01:37.258Z,6.6
2023-02-11T06:02:46.430Z,6.6
2023-02-11T06:03:55.614Z,6.6
2023-02-11T06:05:04.792Z,6.6
2023-02-11T06:07:23.127Z,6.7
2023-02-11T06:09:41.496Z,6.6
2023-02-11T06:10:50.642Z,6.7
2023-02-11T06:11:58.842Z,6.6
2023-02-11T06:13:07.034Z,6.6
2023-02-11T06:14:16.198Z,6.6
2023-02-11T06:15:25.427Z,6.6
2023-02-11T06:16:34.541Z,6.6
2023-02-11T06:17:43.721Z,6.6
2023-02-11T06:18:52.895Z,6.7
2023-02-11T06:20:02.068Z,6.6
2023-02-11T06:21:11.243Z,6.6
2023-02-11T06:22:20.408Z,6.6
2023-02-11T06:23:29.585Z,6.6
2023-02-11T06:24:37.781Z,6.6
2023-02-11T06:25:45.958Z,6.6
2023-02-11T06:26:55.142Z,6.6
2023-02-11T06:29:13.485Z,6.6
2023-02-11T06:30:22.655Z,6.6
2023-02-11T06:31:31.842Z,6.6
2023-02-11T06:32:40.998Z,6.6
2023-02-11T06:33:50.177Z,6.7
2023-02-11T06:34:59.347Z,6.7
2023-02-11T06:36:08.507Z,6.6
2023-02-11T06:37:17.688Z,6.6
2023-02-11T06:38:26.880Z,6.6
2023-02-11T06:39:36.027Z,6.6
2023-02-11T06:40:44.229Z,6.6
2023-02-11T06:41:53.410Z,6.6
2023-02-11T06:43:02.581Z,6.6
2023-02-11T06:44:11.738Z,6.6
2023-02-11T06:45:20.988Z,6.7
2023-02-11T06:46:30.114Z,6.6
2023-02-11T06:47:39.262Z,6.7
2023-02-11T06:48:48.434Z,6.6
2023-02-11T06:49:56.630Z,6.6
2023-02-11T06:51:04.822Z,6.6
2023-02-11T06:52:13.978Z,6.6
2023-02-11T06:53:23.183Z,6.6
2023-02-11T06:54:31.356Z,6.6
2023-02-11T06:55:39.542Z,6.6
2023-02-11T06:56:48.710Z,6.6
2023-02-11T06:57:57.892Z,6.6
2023-02-11T06:59:07.057Z,6.6
2023-02-11T07:00:16.237Z,6.6
2023-02-11T07:01:25.406Z,6.6
2023-02-11T07:02:34.579Z,6.6
2023-02-11T07:03:43.742Z,6.6
2023-02-11T07:04:52.964Z,6.6
2023-02-11T07:06:02.138Z,6.6
2023-02-11T07:07:11.270Z,6.6
2023-02-11T07:09:29.664Z,6.6
2023-02-11T07:10:37.805Z,6.6
2023-02-11T07:11:47.140Z,6.6
2023-02-11T07:12:56.161Z,6.6
2023-02-11T07:14:05.326Z,6.6
2023-02-11T07:15:14.489Z,6.6
2023-02-11T07:16:23.652Z,6.7
2023-02-11T07:17:32.824Z,6.6
2023-02-11T07:18:42.017Z,6.6
2023-02-11T07:19:50.196Z,6.6
2023-02-11T07:20:58.395Z,6.7
2023-02-11T07:22:07.563Z,6.6
2023-02-11T07:23:16.741Z,6.6
2023-02-11T07:24:26.013Z,6.6
2023-02-11T07:25:34.099Z,6.6
2023-02-11T07:26:42.290Z,6.7
2023-02-11T07:27:51.467Z,6.7
2023-02-11T07:29:00.669Z,6.6
2023-02-11T07:30:09.815Z,6.6
2023-02-11T07:31:18.993Z,6.6
2023-02-11T07:32:28.175Z,6.6
2023-02-11T07:33:37.325Z,6.6
2023-02-11T07:34:46.507Z,6.7
2023-02-11T07:35:55.672Z,6.7
2023-02-11T07:37:04.856Z,6.7
2023-02-11T07:38:14.015Z,6.7
2023-02-11T07:39:23.201Z,6.8
2023-02-11T07:40:32.363Z,6.7
2023-02-11T07:41:40.560Z,6.7
2023-02-11T07:42:49.730Z,6.7
2023-02-11T07:43:58.949Z,6.7
2023-02-11T07:45:08.083Z,6.7
2023-02-11T07:46:17.242Z,6.7
2023-02-11T07:47:26.447Z,6.7
2023-02-11T07:48:35.581Z,6.8
2023-02-11T07:49:44.752Z,6.8
2023-02-11T07:50:53.930Z,6.7
2023-02-11T07:52:02.121Z,6.7
2023-02-11T07:53:11.307Z,6.8
2023-02-11T07:54:19.478Z,6.8
2023-02-11T07:55:28.673Z,6.7
2023-02-11T07:56:37.844Z,6.7
2023-02-11T07:57:47.009Z,6.7
2023-02-11T07:58:56.168Z,6.8
2023-02-11T08:00:05.347Z,6.8
2023-02-11T08:01:13.538Z,6.8
2023-02-11T08:02:21.737Z,6.8
2023-02-11T08:03:30.901Z,6.7
2023-02-11T08:04:40.111Z,6.7
2023-02-11T08:05:49.251Z,6.9
2023-02-11T08:06:58.416Z,6.8
2023-02-11T08:08:07.589Z,6.8
2023-02-11T08:09:16.816Z,6.8
2023-02-11T08:10:25.931Z,6.8
2023-02-11T08:11:35.120Z,6.8
2023-02-11T08:12:44.279Z,6.8
2023-02-11T08:13:53.493Z,6.8
2023-02-11T08:15:02.724Z,6.8
2023-02-11T08:16:11.794Z,6.8
2023-02-11T08:17:19.994Z,6.8
2023-02-11T08:18:29.164Z,6.8
2023-02-11T08:19:38.329Z,6.9
2023-02-11T08:20:47.495Z,6.9
2023-02-11T08:21:56.692Z,6.9
2023-02-11T08:23:05.846Z,7
2023-02-11T08:24:15.022Z,6.9
2023-02-11T08:25:24.191Z,6.9
2023-02-11T08:26:33.379Z,6.8
2023-02-11T08:27:41.561Z,6.9
2023-02-11T08:28:49.745Z,6.9
2023-02-11T08:29:57.954Z,6.8
2023-02-11T08:31:06.158Z,6.9
2023-02-11T08:32:15.311Z,7
2023-02-11T08:33:24.476Z,7
2023-02-11T08:34:33.654Z,6.9
2023-02-11T08:35:42.842Z,6.9
2023-02-11T08:36:52.027Z,7.1
2023-02-11T08:38:01.158Z,7.1
2023-02-11T08:39:10.332Z,7
2023-02-11T08:40:19.525Z,7
2023-02-11T08:41:28.685Z,6.9
2023-02-11T08:42:37.851Z,7.1
2023-02-11T08:43:47.023Z,7
2023-02-11T08:44:56.253Z,7
2023-02-11T08:46:04.420Z,7.1
2023-02-11T08:47:13.651Z,7
2023-02-11T08:48:22.748Z,7
2023-02-11T08:49:31.894Z,7
2023-02-11T08:50:41.082Z,7.1
2023-02-11T08:51:50.257Z,7.1
2023-02-11T08:52:59.418Z,7
2023-02-11T08:54:07.640Z,7
2023-02-11T08:55:15.808Z,7.1
2023-02-11T08:56:24.982Z,7.2
2023-02-11T08:57:33.174Z,7.1
2023-02-11T08:58:42.348Z,7.1
2023-02-11T08:59:50.539Z,7.1
2023-02-11T09:00:59.756Z,7.1
2023-02-11T09:02:08.877Z,7.2
2023-02-11T09:03:18.042Z,7.1
2023-02-11T09:05:36.400Z,7.1
2023-02-11T09:06:45.589Z,7.1
2023-02-11T09:07:54.892Z,7.1
2023-02-11T09:09:03.914Z,7.1
2023-02-11T09:10:13.095Z,7.1
2023-02-11T09:11:22.256Z,7.2
2023-02-11T09:12:31.431Z,7.2
2023-02-11T09:13:40.627Z,7.2
2023-02-11T09:14:48.792Z,7.2
2023-02-11T09:15:57.965Z,7.2
2023-02-11T09:17:07.134Z,7.2
2023-02-11T09:18:16.304Z,7.2
2023-02-11T09:19:25.489Z,7.1
2023-02-11T09:20:34.653Z,7.1
2023-02-11T09:21:43.825Z,7.1
2023-02-11T09:22:52.030Z,7.2
2023-02-11T09:24:00.208Z,7.2
2023-02-11T09:25:09.381Z,7.2
2023-02-11T09:26:17.578Z,7.2
2023-02-11T09:27:25.766Z,7.2
2023-02-11T09:28:34.947Z,7.3
2023-02-11T09:29:44.109Z,7.2
2023-02-11T09:30:53.293Z,7.2
2023-02-11T09:32:02.462Z,7.3
2023-02-11T09:33:11.641Z,7.2
2023-02-11T09:34:19.812Z,7.4
2023-02-11T09:35:28.997Z,7.3
2023-02-11T09:36:38.180Z,7.4
2023-02-11T09:37:47.354Z,7.4
2023-02-11T09:38:56.515Z,7.4
2023-02-11T09:40:05.695Z,7.4
2023-02-11T09:41:14.869Z,7.3
2023-02-11T09:42:24.034Z,7.3
2023-02-11T09:43:33.205Z,7.3
2023-02-11T09:44:42.373Z,7.3
2023-02-11T09:45:51.557Z,7.3
2023-02-11T09:47:00.718Z,7.4
2023-02-11T09:48:09.892Z,7.4
2023-02-11T09:49:18.097Z,7.3
2023-02-11T09:51:35.466Z,7.3
2023-02-11T09:52:43.685Z,7.4
2023-02-11T09:53:51.839Z,7.5
2023-02-11T09:55:01.012Z,7.4
2023-02-11T09:56:10.181Z,7.4
2023-02-11T09:58:28.538Z,7.4
2023-02-11T09:59:37.700Z,7.4
2023-02-11T10:00:46.957Z,7.4
2023-02-11T10:01:56.090Z,7.5
2023-02-11T10:03:05.223Z,7.4
2023-02-11T10:04:14.401Z,7.4
2023-02-11T10:05:23.563Z,7.5
2023-02-11T10:06:32.737Z,7.6
2023-02-11T10:07:41.931Z,7.5
2023-02-11T10:08:50.105Z,7.5
2023-02-11T10:09:59.267Z,7.5
2023-02-11T10:11:08.444Z,7.5
2023-02-11T10:12:17.618Z,7.5
2023-02-11T10:13:26.796Z,7.6
2023-02-11T10:14:35.968Z,7.6
2023-02-11T10:15:45.324Z,7.6
2023-02-11T10:16:54.308Z,7.6
2023-02-11T10:18:02.522Z,7.5
2023-02-11T10:19:10.690Z,7.5
2023-02-11T10:20:19.858Z,7.5
2023-02-11T10:21:28.068Z,7.6
2023-02-11T10:22:36.261Z,7.5
2023-02-11T10:23:45.436Z,7.5
2023-02-11T10:24:54.602Z,7.6
2023-02-11T10:26:03.762Z,7.6
2023-02-11T10:27:12.952Z,7.6
2023-02-11T10:28:22.111Z,7.5
2023-02-11T10:29:31.302Z,7.5
2023-02-11T10:30:40.485Z,7.6
2023-02-11T10:31:49.629Z,7.6
2023-02-11T10:34:08.001Z,7.6
2023-02-11T10:35:17.140Z,7.6
2023-02-11T10:36:26.356Z,7.7
2023-02-11T10:37:34.607Z,7.6
2023-02-11T10:38:43.673Z,7.7
2023-02-11T10:39:52.845Z,7.7
2023-02-11T10:41:02.025Z,7.7
2023-02-11T10:42:11.205Z,7.6
2023-02-11T10:43:20.370Z,7.7
2023-02-11T10:44:29.527Z,7.7
2023-02-11T10:45:38.719Z,7.7
2023-02-11T10:46:46.914Z,7.7
2023-02-11T10:47:55.101Z,7.7
2023-02-11T10:49:03.288Z,7.8
2023-02-11T10:50:11.514Z,7.7
2023-02-11T10:51:20.683Z,7.7
2023-02-11T10:52:29.842Z,7.7
2023-02-11T10:53:39.003Z,7.8
2023-02-11T10:54:48.175Z,7.8
2023-02-11T10:55:57.357Z,7.8
2023-02-11T10:57:06.523Z,7.8
2023-02-11T10:58:15.694Z,7.8
2023-02-11T10:59:24.860Z,7.9
2023-02-11T11:00:34.031Z,7.8
2023-02-11T11:01:43.204Z,7.9
2023-02-11T11:02:52.388Z,7.8
2023-02-11T11:04:01.634Z,7.7
2023-02-11T11:05:09.742Z,7.8
2023-02-11T11:06:19.089Z,7.8
2023-02-11T11:07:28.285Z,7.8
2023-02-11T11:08:37.483Z,7.9
2023-02-11T11:09:46.682Z,7.9
2023-02-11T11:10:55.752Z,7.9
2023-02-11T11:12:04.938Z,7.9
2023-02-11T11:13:14.124Z,8
2023-02-11T11:14:23.303Z,7.9
2023-02-11T11:15:32.481Z,7.8
2023-02-11T11:16:41.643Z,7.9
2023-02-11T11:17:50.801Z,7.8
2023-02-11T11:18:59.983Z,7.9
2023-02-11T11:20:08.002Z,8
2023-02-11T11:21:17.332Z,8
2023-02-11T11:22:26.342Z,8.1
2023-02-11T11:23:35.519Z,8
2023-02-11T11:24:44.897Z,8
2023-02-11T11:25:53.876Z,8
2023-02-11T11:27:03.139Z,8
2023-02-11T11:28:12.218Z,8.1
2023-02-11T11:29:21.444Z,8.2
2023-02-11T11:30:30.704Z,8.1
2023-02-11T11:31:39.750Z,8
2023-02-11T11:32:48.903Z,8
2023-02-11T11:33:57.098Z,8
2023-02-11T11:35:05.285Z,8.1
2023-02-11T11:36:14.463Z,8.2
2023-02-11T11:37:23.637Z,8.1
2023-02-11T11:38:31.889Z,8.1
2023-02-11T11:39:40.014Z,8.1
2023-02-11T11:41:58.369Z,8.1
2023-02-11T11:43:07.524Z,8.1
2023-02-11T11:44:16.734Z,8.2
2023-02-11T11:45:25.867Z,8.1
2023-02-11T11:46:35.060Z,8.1
2023-02-11T11:47:44.252Z,8.2
2023-02-11T11:48:53.386Z,8.2
2023-02-11T11:50:02.576Z,8.2
2023-02-11T11:51:11.724Z,8.2
2023-02-11T11:52:20.895Z,8.1
2023-02-11T11:53:30.083Z,8.2
2023-02-11T11:54:38.269Z,8.2
2023-02-11T11:55:47.434Z,8.2
2023-02-11T11:56:56.756Z,8.2
2023-02-11T11:58:05.780Z,8.2
2023-02-11T11:59:14.955Z,8.2
2023-02-11T12:00:24.134Z,8.2
2023-02-11T12:01:33.382Z,8.2
2023-02-11T12:02:42.476Z,8.2
2023-02-11T12:03:50.864Z,8.3
2023-02-11T12:04:58.847Z,8.2
2023-02-11T12:06:08.021Z,8.2
2023-02-11T12:08:25.400Z,8.2
2023-02-11T12:09:33.597Z,8.3
2023-02-11T12:10:41.780Z,8.3
2023-02-11T12:11:50.947Z,8.3
2023-02-11T12:13:00.117Z,8.3
2023-02-11T12:14:09.298Z,8.3
2023-02-11T12:15:18.470Z,8.4
2023-02-11T12:16:27.777Z,8.5
2023-02-11T12:17:36.813Z,8.4
2023-02-11T12:18:45.980Z,8.4
2023-02-11T12:19:55.171Z,8.4
2023-02-11T12:21:04.325Z,8.3
2023-02-11T12:22:13.507Z,8.3
2023-02-11T12:23:22.658Z,8.2
2023-02-11T12:24:31.846Z,8.4
2023-02-11T12:25:40.042Z,8.4
2023-02-11T12:26:49.215Z,8.4
2023-02-11T12:27:58.389Z,8.3
2023-02-11T12:29:07.547Z,8.4
2023-02-11T12:30:16.722Z,8.4
2023-02-11T12:31:25.903Z,8.5
2023-02-11T12:32:35.077Z,8.6
2023-02-11T12:33:43.265Z,8.6
2023-02-11T12:34:51.459Z,8.5
2023-02-11T12:35:59.644Z,8.5
2023-02-11T12:37:07.841Z,8.5
2023-02-11T12:38:17.012Z,8.5
2023-02-11T12:39:26.179Z,8.5
2023-02-11T12:40:35.354Z,8.6
2023-02-11T12:41:44.530Z,8.5
2023-02-11T12:42:53.710Z,8.6
2023-02-11T12:44:02.874Z,8.6
2023-02-11T12:45:12.054Z,8.7
2023-02-11T12:46:21.225Z,8.8
2023-02-11T12:47:30.392Z,8.7
2023-02-11T12:48:39.559Z,8.7
2023-02-11T12:49:48.731Z,8.7
2023-02-11T12:50:57.913Z,8.7
2023-02-11T12:52:07.086Z,8.9
2023-02-11T12:53:15.270Z,8.7
2023-02-11T12:54:24.469Z,8.7
2023-02-11T12:55:33.644Z,8.6
2023-02-11T12:56:42.794Z,8.6
2023-02-11T12:57:51.987Z,8.7
2023-02-11T12:59:01.154Z,8.7
2023-02-11T13:00:09.324Z,8.6
2023-02-11T13:01:17.518Z,8.7
2023-02-11T13:02:26.689Z,8.8
2023-02-11T13:03:35.874Z,8.8
2023-02-11T13:04:45.061Z,8.8
2023-02-11T13:05:54.242Z,8.9
2023-02-11T13:07:03.374Z,9
2023-02-11T13:08:12.553Z,9.1
2023-02-11T13:09:21.725Z,9
2023-02-11T13:10:30.911Z,9.1
2023-02-11T13:11:40.077Z,9
2023-02-11T13:12:49.242Z,8.9
2023-02-11T13:13:58.424Z,8.9
2023-02-11T13:15:07.606Z,8.9
2023-02-11T13:16:15.775Z,9
2023-02-11T13:17:24.958Z,8.9
2023-02-11T13:18:34.127Z,8.9
2023-02-11T13:19:43.309Z,8.9
2023-02-11T13:20:52.461Z,8.9
2023-02-11T13:22:01.645Z,9.1
2023-02-11T13:23:10.823Z,9.1
2023-02-11T13:24:19.008Z,9
2023-02-11T13:25:27.200Z,9.1
2023-02-11T13:26:35.388Z,9
2023-02-11T13:28:52.764Z,9.1
2023-02-11T13:30:01.941Z,9.2
2023-02-11T13:31:11.098Z,9.3
2023-02-11T13:32:20.267Z,9.4
2023-02-11T13:33:29.449Z,9.5
2023-02-11T13:34:38.759Z,9.4
2023-02-11T13:35:47.794Z,9.4
2023-02-11T13:36:56.966Z,9.5
2023-02-11T13:38:06.165Z,9.5
2023-02-11T13:39:15.308Z,9.5
2023-02-11T13:40:24.488Z,9.5
2023-02-11T13:41:33.649Z,9.5
2023-02-11T13:42:41.847Z,9.7
2023-02-11T13:43:51.007Z,9.6
2023-02-11T13:45:00.186Z,9.6
2023-02-11T13:46:09.447Z,9.7
2023-02-11T13:47:18.523Z,9.7
2023-02-11T13:48:27.698Z,9.7
2023-02-11T13:49:36.873Z,9.7
2023-02-11T13:50:46.047Z,9.7
2023-02-11T13:51:54.297Z,9.5
2023-02-11T13:53:02.431Z,9.5
2023-02-11T13:54:11.598Z,9.5
2023-02-11T13:55:20.783Z,9.8
2023-02-11T13:56:29.941Z,9.8
2023-02-11T13:57:39.129Z,9.8
2023-02-11T13:59:56.552Z,9.6
2023-02-11T14:01:04.680Z,9.7
2023-02-11T14:02:12.876Z,9.8
2023-02-11T14:03:22.069Z,9.9
2023-02-11T14:04:31.215Z,9.9
2023-02-11T14:05:40.386Z,9.8
2023-02-11T14:06:49.587Z,9.9
2023-02-11T14:07:58.763Z,9.9
2023-02-11T14:09:07.908Z,9.9
2023-02-11T14:10:17.070Z,10.1
2023-02-11T14:11:26.251Z,10.1
2023-02-11T14:12:35.436Z,10
2023-02-11T14:13:44.597Z,10
2023-02-11T14:14:53.771Z,10
2023-02-11T14:16:02.990Z,9.9
2023-02-11T14:17:11.169Z,9.9
2023-02-11T14:18:20.303Z,9.9
2023-02-11T14:20:38.636Z,9.6
2023-02-11T14:21:47.831Z,9.6
2023-02-11T14:24:06.167Z,9.6
2023-02-11T14:25:14.384Z,9.7
2023-02-11T14:26:22.561Z,9.7
2023-02-11T14:27:31.735Z,9.6
2023-02-11T14:28:40.888Z,9.6
2023-02-11T14:29:50.068Z,9.6
2023-02-11T14:32:08.413Z,9.7
2023-02-11T14:33:17.614Z,9.8
2023-02-11T14:34:26.763Z,9.7
2023-02-11T14:35:35.941Z,9.7
2023-02-11T14:36:45.131Z,9.8
2023-02-11T14:37:54.283Z,9.8
2023-02-11T14:39:03.453Z,9.8
2023-02-11T14:40:12.630Z,9.7
2023-02-11T14:41:20.824Z,9.7
2023-02-11T14:42:29.989Z,9.7
2023-02-11T14:43:39.159Z,9.7
2023-02-11T14:44:48.328Z,9.8
2023-02-11T14:47:06.682Z,9.7
2023-02-11T14:48:14.943Z,9.8
2023-02-11T14:49:23.051Z,9.8
2023-02-11T14:50:32.233Z,9.8
2023-02-11T14:52:50.573Z,10.1
2023-02-11T14:53:59.747Z,10.1
2023-02-11T14:55:08.955Z,10
2023-02-11T14:56:18.087Z,10.1
2023-02-11T14:58:36.429Z,10
2023-02-11T14:59:45.610Z,10
2023-02-11T15:00:54.798Z,10
2023-02-11T15:02:03.954Z,10
2023-02-11T15:03:13.126Z,9.9
2023-02-11T15:04:21.316Z,9.9
2023-02-11T15:05:30.481Z,9.9
2023-02-11T15:06:39.665Z,10
2023-02-11T15:07:48.833Z,9.9
2023-02-11T15:08:58.069Z,9.9
2023-02-11T15:10:07.190Z,10
2023-02-11T15:12:25.518Z,9.9
2023-02-11T15:13:34.693Z,9.9
2023-02-11T15:14:43.865Z,9.9
2023-02-11T15:15:53.041Z,9.8
2023-02-11T15:17:01.241Z,9.9
2023-02-11T15:18:09.434Z,9.9
2023-02-11T15:20:27.778Z,9.9
2023-02-11T15:21:36.943Z,9.8
2023-02-11T15:22:45.142Z,9.9
2023-02-11T15:23:53.331Z,9.8
2023-02-11T15:25:02.496Z,9.8
2023-02-11T15:26:11.679Z,9.8
2023-02-11T15:27:20.857Z,9.8
2023-02-11T15:28:30.019Z,9.8
2023-02-11T15:29:39.203Z,9.8
2023-02-11T15:30:48.350Z,9.8
2023-02-11T15:31:57.570Z,9.8
2023-02-11T15:33:06.705Z,9.8
2023-02-11T15:34:15.887Z,9.7
2023-02-11T15:35:24.070Z,9.8
2023-02-11T15:36:32.264Z,9.8
2023-02-11T15:37:41.443Z,9.8
2023-02-11T15:38:50.612Z,9.9
2023-02-11T15:39:59.780Z,9.9
2023-02-11T15:41:08.961Z,9.9
2023-02-11T15:42:18.132Z,9.8
2023-02-11T15:43:27.312Z,9.8
2023-02-11T15:44:36.489Z,9.8
2023-02-11T15:45:45.661Z,9.8
2023-02-11T15:46:54.822Z,9.8
2023-02-11T15:48:03.025Z,9.9
2023-02-11T15:49:12.193Z,9.9
2023-02-11T15:50:20.372Z,9.9
2023-02-11T15:51:29.551Z,9.9
2023-02-11T15:52:38.720Z,9.9
2023-02-11T15:53:47.893Z,9.9
2023-02-11T15:54:57.070Z,9.8
2023-02-11T15:56:06.258Z,9.8
2023-02-11T15:57:15.406Z,9.8
2023-02-11T15:58:24.579Z,9.7
2023-02-11T15:59:33.787Z,9.7
2023-02-11T16:00:42.963Z,9.7
2023-02-11T16:01:52.110Z,9.7
2023-02-11T16:03:01.263Z,9.7
2023-02-11T16:04:10.477Z,9.7
2023-02-11T16:05:18.632Z,9.7
2023-02-11T16:06:27.797Z,9.7
2023-02-11T16:07:36.975Z,9.6
2023-02-11T16:08:46.153Z,9.7
2023-02-11T16:09:55.330Z,9.6
2023-02-11T16:11:04.497Z,9.7
2023-02-11T16:12:12.683Z,9.6
2023-02-11T16:13:20.929Z,9.7
2023-02-11T16:14:29.126Z,9.6
2023-02-11T16:15:37.394Z,9.6
2023-02-11T16:16:46.426Z,9.5
2023-02-11T16:17:55.609Z,9.5
2023-02-11T16:19:04.820Z,9.4
2023-02-11T16:20:13.970Z,9.4
2023-02-11T16:21:23.144Z,9.5
2023-02-11T16:22:32.343Z,9.5
2023-02-11T16:23:41.467Z,9.5
2023-02-11T16:24:50.634Z,9.4
2023-02-11T16:25:59.831Z,9.4
2023-02-11T16:27:08.986Z,9.4